Time;durP1;ratioP1;P1;durP2;ratioP2;P2;SDS_P1;SDS_P2;PMS_P1;PMS_P2;Temp;Humidity;BMP_temperature;BMP_pressure;BME280_temperature;BME280_humidity;BME280_pressure;Samples;Min_cycle;Max_cycle;Signal;HPM_P1;HPM_P2
2023/04/21 00:01:08;;;;;;;;;;;;;;;;;;4995764;28;19928;-90
2023/04/21 00:03:37;;;;;;;;;;;;;;;;;;4980031;28;19925;-90
2023/04/21 00:06:05;;;;;;;;;;;;;;;;;;4995764;28;19979;-90
2023/04/21 00:08:30;;;;;;;;;;;;;;;;;;4978806;28;19929;-90
2023/04/21 00:10:56;;;;;;;;;;;;;;;;;;4995648;28;19921;-89
2023/04/21 00:13:22;;;;;;;;;;;;;;;;;;4979434;28;20373;-90
2023/04/21 00:15:48;;;;;;;;;;;;;;;;;;4995400;28;19921;-90
2023/04/21 00:18:15;;;;;;;;;;;;;;;;;;4979451;28;19921;-90
2023/04/21 00:20:41;;;;;;;;;;;;;;;;;;4979769;28;20284;-90
2023/04/21 00:23:09;;;;;;;;;;;;;;;;;;4995399;28;20369;-90
2023/04/21 00:25:35;;;;;;;;;;;;;;;;;;4995346;28;20439;-90
2023/04/21 00:28:01;;;;;;;;;;;;;;;;;;4995804;28;19972;-89
2023/04/21 00:30:27;;;;;;;;;;;;;;;;;;4995475;28;20365;-89
2023/04/21 00:32:53;;;;;;;;;;;;;;;;;;4995171;28;19925;-89
2023/04/21 00:35:19;;;;;;;;;;;;;;;;;;4995170;28;19928;-89
2023/04/21 00:37:45;;;;;;;;;;;;;;;;;;4994938;28;20012;-89
2023/04/21 00:40:12;;;;;;;;;;;;;;;;;;4995134;28;20018;-89
2023/04/21 00:42:38;;;;;;;;;;;;;;;;;;4995106;28;19931;-89
2023/04/21 00:45:04;;;;;;;;;;;;;;;;;;4995557;28;19921;-89
2023/04/21 00:47:30;;;;;;;;;;;;;;;;;;4995409;28;20395;-89
2023/04/21 00:49:56;;;;;;;;;;;;;;;;;;4979141;28;19983;-89
2023/04/21 00:52:21;;;;;;;;;;;;;;;;;;4978919;28;19937;-88
2023/04/21 00:54:47;;;;;;;;;;;;;;;;;;4994689;28;19921;-89
2023/04/21 00:57:13;;;;;;;;;;;;;;;;;;4994896;28;19925;-89
2023/04/21 00:59:39;;;;;;;;;;;;;;;;;;4995020;28;20377;-89
2023/04/21 01:02:05;;;;;;;;;;;;;;;;;;4994755;28;19926;-88
2023/04/21 01:04:38;;;;;;;;;;;;;;;;;;4994599;28;19926;-89
2023/04/21 01:07:04;;;;;;;;;;;;;;;;;;4994685;28;20373;-89
2023/04/21 01:09:30;;;;;;;;;;;;;;;;;;4994573;28;19943;-89
2023/04/21 01:11:56;;;;;;;;;;;;;;;;;;4994586;28;20301;-88
2023/04/21 01:14:22;;;;;;;;;;;;;;;;;;4978474;28;19922;-88
2023/04/21 01:16:47;;;;;;;;;;;;;;;;;;4994618;28;19922;-88
2023/04/21 01:19:13;;;;;;;;;;;;;;;;;;4978533;28;19944;-89
2023/04/21 01:21:40;;;;;;;;;;;;;;;;;;4982251;28;20380;-89
2023/04/21 01:24:06;;;;;;;;;;;;;;;;;;4998514;28;20291;-89
2023/04/21 01:26:32;;;;;;;;;;;;;;;;;;4982295;28;20008;-89
2023/04/21 01:28:58;;;;;;;;;;;;;;;;;;4998430;28;19921;-89
2023/04/21 01:31:26;;;;;;;;;;;;;;;;;;4998105;28;20304;-88
2023/04/21 01:33:51;;;;;;;;;;;;;;;;;;4982084;28;20015;-88
2023/04/21 01:36:17;;;;;;;;;;;;;;;;;;4998462;28;20016;-88
2023/04/21 01:38:43;;;;;;;;;;;;;;;;;;4982344;28;20368;-89
2023/04/21 01:41:09;;;;;;;;;;;;;;;;;;4998247;28;20013;-88
2023/04/21 01:43:36;;;;;;;;;;;;;;;;;;4981976;28;19964;-88
2023/04/21 01:46:01;;;;;;;;;;;;;;;;;;4997866;28;19922;-90
2023/04/21 01:48:27;;;;;;;;;;;;;;;;;;4981719;28;19932;-88
2023/04/21 01:50:53;;;;;;;;;;;;;;;;;;4997957;28;20066;-88
2023/04/21 01:53:19;;;;;;;;;;;;;;;;;;4998157;28;20358;-89
2023/04/21 01:55:48;;;;;;;;;;;;;;;;;;4982562;28;20321;-89
2023/04/21 01:58:14;;;;;;;;;;;;;;;;;;4998074;28;19932;-89
2023/04/21 02:00:40;;;;;;;;;;;;;;;;;;4997985;28;19921;-90
2023/04/21 02:03:06;;;;;;;;;;;;;;;;;;4997660;28;20029;-89
2023/04/21 02:05:32;;;;;;;;;;;;;;;;;;4994313;28;19932;-88
2023/04/21 02:07:58;;;;;;;;;;;;;;;;;;4978349;28;20400;-90
2023/04/21 02:10:24;;;;;;;;;;;;;;;;;;4978451;28;20242;-90
2023/04/21 02:12:50;;;;;;;;;;;;;;;;;;4978427;28;19922;-89
2023/04/21 02:15:16;;;;;;;;;;;;;;;;;;4994421;28;19922;-88
2023/04/21 02:17:43;;;;;;;;;;;;;;;;;;4994785;28;20369;-89
2023/04/21 02:20:10;;;;;;;;;;;;;;;;;;4994559;28;19921;-89
2023/04/21 02:22:36;;;;;;;;;;;;;;;;;;4978089;28;19990;-88
2023/04/21 02:25:02;;;;;;;;;;;;;;;;;;4994221;28;19921;-88
2023/04/21 02:27:28;;;;;;;;;;;;;;;;;;4977848;28;19926;-89
2023/04/21 02:29:54;;;;;;;;;;;;;;;;;;4994463;28;19929;-89
2023/04/21 02:32:20;;;;;;;;;;;;;;;;;;4976924;28;19926;-89
2023/04/21 02:34:46;;;;;;;;;;;;;;;;;;4993685;28;19928;-89
2023/04/21 02:37:12;;;;;;;;;;;;;;;;;;4993974;28;19926;-88
2023/04/21 02:39:38;;;;;;;;;;;;;;;;;;4993906;28;19922;-89
2023/04/21 02:42:04;;;;;;;;;;;;;;;;;;4993873;28;19925;-89
2023/04/21 02:44:30;;;;;;;;;;;;;;;;;;4993672;28;19928;-89
2023/04/21 02:46:56;;;;;;;;;;;;;;;;;;4993720;28;19925;-89
2023/04/21 02:49:22;;;;;;;;;;;;;;;;;;4977444;28;19922;-89
2023/04/21 02:51:47;;;;;;;;;;;;;;;;;;4994086;28;19933;-89
2023/04/21 02:54:13;;;;;;;;;;;;;;;;;;4994026;28;20337;-90
2023/04/21 02:56:39;;;;;;;;;;;;;;;;;;4977517;28;20128;-90
2023/04/21 02:59:05;;;;;;;;;;;;;;;;;;4993957;28;19921;-90
2023/04/21 03:01:31;;;;;;;;;;;;;;;;;;4993565;28;20384;-89
2023/04/21 03:03:57;;;;;;;;;;;;;;;;;;4994371;28;19929;-89
2023/04/21 03:06:23;;;;;;;;;;;;;;;;;;4996801;28;19925;-88
2023/04/21 03:08:49;;;;;;;;;;;;;;;;;;4980611;28;20377;-89
2023/04/21 03:11:15;;;;;;;;;;;;;;;;;;4980411;28;19922;-89
2023/04/21 03:13:41;;;;;;;;;;;;;;;;;;4996449;28;19928;-89
2023/04/21 03:16:07;;;;;;;;;;;;;;;;;;4980320;28;19922;-89
2023/04/21 03:18:32;;;;;;;;;;;;;;;;;;4996322;28;19965;-89
2023/04/21 03:20:58;;;;;;;;;;;;;;;;;;4980046;28;19928;-89
2023/04/21 03:23:24;;;;;;;;;;;;;;;;;;4996821;28;19981;-89
2023/04/21 03:25:50;;;;;;;;;;;;;;;;;;4980176;28;19922;-90
2023/04/21 03:28:16;;;;;;;;;;;;;;;;;;4980219;28;20339;-89
2023/04/21 03:30:42;;;;;;;;;;;;;;;;;;4996346;28;20318;-89
2023/04/21 03:33:08;;;;;;;;;;;;;;;;;;4996129;28;19944;-89
2023/04/21 03:35:34;;;;;;;;;;;;;;;;;;4996260;28;19936;-89
2023/04/21 03:38:00;;;;;;;;;;;;;;;;;;4979865;28;19922;-89
2023/04/21 03:40:26;;;;;;;;;;;;;;;;;;4979994;28;19922;-89
2023/04/21 03:42:52;;;;;;;;;;;;;;;;;;4995621;28;19948;-89
2023/04/21 03:45:22;;;;;;;;;;;;;;;;;;4995722;28;19922;-89
2023/04/21 03:47:48;;;;;;;;;;;;;;;;;;4979614;28;20364;-89
2023/04/21 03:50:14;;;;;;;;;;;;;;;;;;4979988;28;19921;-88
2023/04/21 03:52:40;;;;;;;;;;;;;;;;;;4996177;28;19921;-89
2023/04/21 03:55:10;;;;;;;;;;;;;;;;;;4980012;28;19975;-89
2023/04/21 03:57:36;;;;;;;;;;;;;;;;;;4979857;28;19972;-89
2023/04/21 04:00:04;;;;;;;;;;;;;;;;;;4995816;28;19921;-89
2023/04/21 04:02:29;;;;;;;;;;;;;;;;;;4995774;28;19929;-89
2023/04/21 04:04:55;;;;;;;;;;;;;;;;;;4992165;28;19972;-89
2023/04/21 04:07:21;;;;;;;;;;;;;;;;;;4976059;28;20433;-89
2023/04/21 04:09:47;;;;;;;;;;;;;;;;;;4992271;28;20289;-89
2023/04/21 04:12:13;;;;;;;;;;;;;;;;;;4976109;28;19926;-89
2023/04/21 04:14:39;;;;;;;;;;;;;;;;;;4992196;28;19933;-89
2023/04/21 04:17:05;;;;;;;;;;;;;;;;;;4991859;28;19929;-89
2023/04/21 04:19:31;;;;;;;;;;;;;;;;;;4975937;28;20378;-89
2023/04/21 04:21:57;;;;;;;;;;;;;;;;;;4992186;28;19926;-89
2023/04/21 04:24:23;;;;;;;;;;;;;;;;;;4975895;28;19930;-89
2023/04/21 04:26:49;;;;;;;;;;;;;;;;;;4992489;28;19984;-89
2023/04/21 04:29:15;;;;;;;;;;;;;;;;;;4991878;28;20373;-89
2023/04/21 04:31:41;;;;;;;;;;;;;;;;;;4991675;28;19922;-88
2023/04/21 04:34:08;;;;;;;;;;;;;;;;;;4976093;28;19922;-89
2023/04/21 04:36:34;;;;;;;;;;;;;;;;;;4975691;28;19969;-89
2023/04/21 04:39:00;;;;;;;;;;;;;;;;;;4992123;28;19969;-89
2023/04/21 04:41:26;;;;;;;;;;;;;;;;;;4975852;28;19929;-89
2023/04/21 04:43:52;;;;;;;;;;;;;;;;;;4991617;28;20270;-89
2023/04/21 04:46:19;;;;;;;;;;;;;;;;;;4975549;28;20016;-89
2023/04/21 04:48:45;;;;;;;;;;;;;;;;;;4992176;28;20221;-88
2023/04/21 04:51:11;;;;;;;;;;;;;;;;;;4975856;28;19929;-88
2023/04/21 04:53:37;;;;;;;;;;;;;;;;;;4991579;28;19922;-88
2023/04/21 04:56:03;;;;;;;;;;;;;;;;;;4991214;28;19980;-89
2023/04/21 04:58:29;;;;;;;;;;;;;;;;;;4991545;28;20005;-89
2023/04/21 05:00:55;;;;;;;;;;;;;;;;;;4991226;28;20280;-88
2023/04/21 05:03:21;;;;;;;;;;;;;;;;;;4992324;28;19925;-88
2023/04/21 05:05:47;;;;;;;;;;;;;;;;;;4975024;28;19925;-88
2023/04/21 05:08:13;;;;;;;;;;;;;;;;;;4991739;28;19926;-88
2023/04/21 05:10:38;;;;;;;;;;;;;;;;;;4991536;28;19922;-88
2023/04/21 05:13:05;;;;;;;;;;;;;;;;;;4975608;28;20117;-87
2023/04/21 05:15:31;;;;;;;;;;;;;;;;;;4975820;28;20281;-88
2023/04/21 05:17:57;;;;;;;;;;;;;;;;;;4991869;28;19928;-88
2023/04/21 05:20:23;;;;;;;;;;;;;;;;;;4974941;28;19926;-88
2023/04/21 05:22:49;;;;;;;;;;;;;;;;;;4991036;28;19971;-89
2023/04/21 05:25:15;;;;;;;;;;;;;;;;;;4991292;28;20012;-89
2023/04/21 05:27:41;;;;;;;;;;;;;;;;;;4991369;28;20001;-88
2023/04/21 05:30:06;;;;;;;;;;;;;;;;;;4975089;28;20361;-89
2023/04/21 05:32:32;;;;;;;;;;;;;;;;;;4991862;28;20069;-89
2023/04/21 05:34:59;;;;;;;;;;;;;;;;;;4991335;28;19922;-89
2023/04/21 05:37:25;;;;;;;;;;;;;;;;;;4975579;28;19998;-91
2023/04/21 05:39:51;;;;;;;;;;;;;;;;;;4991632;28;19922;-91
2023/04/21 05:42:20;;;;;;;;;;;;;;;;;;4975177;28;19926;-90
2023/04/21 05:44:46;;;;;;;;;;;;;;;;;;4975641;28;20422;-91
2023/04/21 05:47:12;;;;;;;;;;;;;;;;;;4991634;28;20076;-90
2023/04/21 05:49:38;;;;;;;;;;;;;;;;;;4975838;28;19976;-92
2023/04/21 05:52:04;;;;;;;;;;;;;;;;;;4975581;28;19921;-93
2023/04/21 05:54:31;;;;;;;;;;;;;;;;;;4975861;28;19922;-92
2023/04/21 05:56:57;;;;;;;;;;;;;;;;;;4975566;28;19934;-92
2023/04/21 05:59:25;;;;;;;;;;;;;;;;;;4975518;28;19988;-92
2023/04/21 06:01:51;;;;;;;;;;;;;;;;;;4975653;28;20025;-93
2023/04/21 06:04:17;;;;;;;;;;;;;;;;;;4977017;28;19972;-93
2023/04/21 06:06:43;;;;;;;;;;;;;;;;;;4979436;28;19933;-92
2023/04/21 06:09:09;;;;;;;;;;;;;;;;;;4998651;28;20025;-92
2023/04/21 06:11:35;;;;;;;;;;;;;;;;;;4998651;28;19936;-93
2023/04/21 06:14:01;;;;;;;;;;;;;;;;;;4998705;28;19922;-92
2023/04/21 06:16:27;;;;;;;;;;;;;;;;;;4982212;28;20289;-92
2023/04/21 06:18:53;;;;;;;;;;;;;;;;;;4982282;28;19933;-93
2023/04/21 06:21:18;;;;;;;;;;;;;;;;;;4998448;28;19922;-94
2023/04/21 06:23:45;;;;;;;;;;;;;;;;;;4998207;28;19925;-92
2023/04/21 06:26:11;;;;;;;;;;;;;;;;;;4981633;28;19921;-90
2023/04/21 06:28:38;;;;;;;;;;;;;;;;;;4981457;28;20016;-89
2023/04/21 06:31:04;;;;;;;;;;;;;;;;;;4997875;28;20253;-88
2023/04/21 06:33:30;;;;;;;;;;;;;;;;;;4997833;28;19922;-89
2023/04/21 06:35:56;;;;;;;;;;;;;;;;;;4997301;28;20329;-89
2023/04/21 06:38:22;;;;;;;;;;;;;;;;;;4981087;28;19928;-88
2023/04/21 06:40:47;;;;;;;;;;;;;;;;;;4997713;28;20316;-87
2023/04/21 06:43:13;;;;;;;;;;;;;;;;;;5014975;28;20122;-88
2023/04/21 06:45:39;;;;;;;;;;;;;;;;;;4980972;28;20004;-89
2023/04/21 06:48:05;;;;;;;;;;;;;;;;;;4979989;28;19928;-88
2023/04/21 06:50:31;;;;;;;;;;;;;;;;;;4997676;28;19922;-87
2023/04/21 06:52:57;;;;;;;;;;;;;;;;;;5014826;28;19921;-90
2023/04/21 06:55:23;;;;;;;;;;;;;;;;;;4996741;28;19925;-92
2023/04/21 06:57:49;;;;;;;;;;;;;;;;;;4997556;28;20361;-92
2023/04/21 07:00:15;;;;;;;;;;;;;;;;;;4998382;28;19921;-91
2023/04/21 07:02:41;;;;;;;;;;;;;;;;;;4981842;28;19925;-91
2023/04/21 07:05:07;;;;;;;;;;;;;;;;;;4982007;28;19926;-92
2023/04/21 07:07:32;;;;;;;;;;;;;;;;;;4997981;28;19948;-88
2023/04/21 07:09:58;;;;;;;;;;;;;;;;;;4997716;28;20230;-88
2023/04/21 07:12:24;;;;;;;;;;;;;;;;;;4997491;28;19922;-88
2023/04/21 07:14:50;;;;;;;;;;;;;;;;;;4997135;28;19929;-91
2023/04/21 07:17:16;;;;;;;;;;;;;;;;;;4997246;28;20369;-88
2023/04/21 07:19:42;;;;;;;;;;;;;;;;;;5014248;28;19983;-87
2023/04/21 07:22:08;;;;;;;;;;;;;;;;;;4996330;28;19933;-87
2023/04/21 07:24:36;;;;;;;;;;;;;;;;;;4996394;28;19960;-88
2023/04/21 07:27:02;;;;;;;;;;;;;;;;;;4980646;28;20031;-88
2023/04/21 07:29:27;;;;;;;;;;;;;;;;;;4996493;28;20016;-88
2023/04/21 07:31:54;;;;;;;;;;;;;;;;;;4996450;28;20341;-88
2023/04/21 07:34:20;;;;;;;;;;;;;;;;;;4980273;28;19927;-88
2023/04/21 07:36:46;;;;;;;;;;;;;;;;;;4996715;28;19921;-89
2023/04/21 07:39:11;;;;;;;;;;;;;;;;;;4996537;28;19943;-88
2023/04/21 07:41:37;;;;;;;;;;;;;;;;;;4996336;28;19937;-88
2023/04/21 07:44:03;;;;;;;;;;;;;;;;;;4980475;28;19925;-88
2023/04/21 07:46:30;;;;;;;;;;;;;;;;;;4996198;28;19978;-88
2023/04/21 07:48:56;;;;;;;;;;;;;;;;;;4979998;28;19976;-88
2023/04/21 07:51:22;;;;;;;;;;;;;;;;;;4979627;28;19921;-88
2023/04/21 07:53:48;;;;;;;;;;;;;;;;;;4979659;28;19921;-88
2023/04/21 07:56:14;;;;;;;;;;;;;;;;;;4995737;28;20144;-88
2023/04/21 07:58:40;;;;;;;;;;;;;;;;;;4995773;28;19922;-89
2023/04/21 08:01:06;;;;;;;;;;;;;;;;;;4996277;28;20258;-89
2023/04/21 08:03:32;;;;;;;;;;;;;;;;;;4995759;28;19932;-88
2023/04/21 08:05:58;;;;;;;;;;;;;;;;;;4995385;28;19925;-88
2023/04/21 08:08:24;;;;;;;;;;;;;;;;;;4979289;28;20025;-89
2023/04/21 08:10:50;;;;;;;;;;;;;;;;;;4995675;28;20316;-88
2023/04/21 08:13:16;;;;;;;;;;;;;;;;;;4995585;28;19961;-88
2023/04/21 08:15:42;;;;;;;;;;;;;;;;;;4995681;28;19928;-88
2023/04/21 08:18:08;;;;;;;;;;;;;;;;;;4979288;28;20322;-89
2023/04/21 08:20:34;;;;;;;;;;;;;;;;;;4979255;28;19922;-88
2023/04/21 08:22:59;;;;;;;;;;;;;;;;;;4995381;28;19932;-88
2023/04/21 08:25:25;;;;;;;;;;;;;;;;;;4995648;28;19921;-88
2023/04/21 08:27:51;;;;;;;;;;;;;;;;;;4979142;28;19921;-89
2023/04/21 08:30:17;;;;;;;;;;;;;;;;;;4978495;28;19921;-88
2023/04/21 08:32:43;;;;;;;;;;;;;;;;;;4995769;28;20046;-88
2023/04/21 08:35:09;;;;;;;;;;;;;;;;;;4995203;28;20376;-88
2023/04/21 08:37:35;;;;;;;;;;;;;;;;;;4995244;28;20009;-88
2023/04/21 08:40:01;;;;;;;;;;;;;;;;;;4978879;28;19968;-89
2023/04/21 08:42:27;;;;;;;;;;;;;;;;;;4978869;28;19925;-89
2023/04/21 08:44:53;;;;;;;;;;;;;;;;;;4979011;28;20370;-89
2023/04/21 08:47:19;;;;;;;;;;;;;;;;;;4978832;28;19922;-88
2023/04/21 08:49:45;;;;;;;;;;;;;;;;;;5012663;28;19968;-88
2023/04/21 08:52:11;;;;;;;;;;;;;;;;;;4995021;28;19921;-88
2023/04/21 08:54:37;;;;;;;;;;;;;;;;;;4994958;28;20281;-88
2023/04/21 08:57:03;;;;;;;;;;;;;;;;;;5012640;28;20335;-88
2023/04/21 08:59:29;;;;;;;;;;;;;;;;;;4994909;28;20004;-88
2023/04/21 09:01:55;;;;;;;;;;;;;;;;;;4994832;28;19926;-88
2023/04/21 09:04:21;;;;;;;;;;;;;;;;;;4994662;28;19988;-88
2023/04/21 09:06:47;;;;;;;;;;;;;;;;;;4994807;28;20344;-88
2023/04/21 09:09:13;;;;;;;;;;;;;;;;;;4978493;28;20012;-87
2023/04/21 09:11:39;;;;;;;;;;;;;;;;;;4994780;28;19976;-88
2023/04/21 09:14:05;;;;;;;;;;;;;;;;;;4994846;28;19927;-88
2023/04/21 09:16:32;;;;;;;;;;;;;;;;;;4994501;28;20269;-88
2023/04/21 09:18:58;;;;;;;;;;;;;;;;;;4978428;28;19921;-88
2023/04/21 09:21:24;;;;;;;;;;;;;;;;;;5012212;28;19922;-89
2023/04/21 09:23:50;;;;;;;;;;;;;;;;;;4978354;28;19922;-88
2023/04/21 09:26:16;;;;;;;;;;;;;;;;;;4994666;28;20044;-88
2023/04/21 09:28:42;;;;;;;;;;;;;;;;;;4994682;28;19936;-88
2023/04/21 09:31:08;;;;;;;;;;;;;;;;;;4978214;28;19921;-88
2023/04/21 09:33:35;;;;;;;;;;;;;;;;;;4994152;28;19978;-88
2023/04/21 09:36:02;;;;;;;;;;;;;;;;;;4994434;28;19922;-88
2023/04/21 09:38:27;;;;;;;;;;;;;;;;;;4994259;28;19933;-88
2023/04/21 09:40:53;;;;;;;;;;;;;;;;;;4995461;28;19933;-88
2023/04/21 09:43:19;;;;;;;;;;;;;;;;;;4998399;28;19932;-88
2023/04/21 09:45:45;;;;;;;;;;;;;;;;;;4998432;28;20268;-87
2023/04/21 09:48:11;;;;;;;;;;;;;;;;;;4982083;28;19921;-88
2023/04/21 09:50:37;;;;;;;;;;;;;;;;;;4998035;28;19929;-88
2023/04/21 09:53:03;;;;;;;;;;;;;;;;;;4981683;28;19925;-87
2023/04/21 09:55:29;;;;;;;;;;;;;;;;;;4998371;28;20288;-91
2023/04/21 09:57:55;;;;;;;;;;;;;;;;;;4981886;28;19957;-89
2023/04/21 10:00:21;;;;;;;;;;;;;;;;;;4980605;28;20418;-87
2023/04/21 10:02:47;;;;;;;;;;;;;;;;;;4981313;28;20020;-88
2023/04/21 10:05:13;;;;;;;;;;;;;;;;;;4998261;28;20313;-88
2023/04/21 10:07:39;;;;;;;;;;;;;;;;;;4998110;28;19941;-88
2023/04/21 10:10:05;;;;;;;;;;;;;;;;;;4981564;28;19925;-87
2023/04/21 10:12:30;;;;;;;;;;;;;;;;;;4997880;28;20285;-88
2023/04/21 10:14:56;;;;;;;;;;;;;;;;;;5015599;28;19925;-88
2023/04/21 10:17:23;;;;;;;;;;;;;;;;;;4997469;28;19921;-90
2023/04/21 10:19:49;;;;;;;;;;;;;;;;;;4997503;28;19956;-89
2023/04/21 10:22:15;;;;;;;;;;;;;;;;;;4981436;28;20355;-88
2023/04/21 10:24:41;;;;;;;;;;;;;;;;;;4997471;28;19922;-88
2023/04/21 10:27:07;;;;;;;;;;;;;;;;;;4997304;28;20393;-87
2023/04/21 10:29:33;;;;;;;;;;;;;;;;;;4997251;28;19933;-87
2023/04/21 10:31:59;;;;;;;;;;;;;;;;;;4997183;28;19944;-89
2023/04/21 10:34:25;;;;;;;;;;;;;;;;;;4981139;28;20380;-89
2023/04/21 10:36:51;;;;;;;;;;;;;;;;;;4997328;28;19921;-88
2023/04/21 10:39:16;;;;;;;;;;;;;;;;;;4997140;28;19929;-89
2023/04/21 10:41:45;;;;;;;;;;;;;;;;;;4998516;28;19925;-88
2023/04/21 10:44:10;;;;;;;;;;;;;;;;;;4981116;28;19929;-89
2023/04/21 10:46:36;;;;;;;;;;;;;;;;;;4996740;28;19926;-89
2023/04/21 10:49:02;;;;;;;;;;;;;;;;;;4997070;28;19928;-88
2023/04/21 10:51:28;;;;;;;;;;;;;;;;;;4981513;28;19925;-88
2023/04/21 10:53:54;;;;;;;;;;;;;;;;;;4996401;28;20397;-88
2023/04/21 10:56:20;;;;;;;;;;;;;;;;;;4996763;28;19921;-88
2023/04/21 10:58:46;;;;;;;;;;;;;;;;;;4997180;28;19948;-88
2023/04/21 11:01:12;;;;;;;;;;;;;;;;;;4980598;28;20432;-87
2023/04/21 11:03:38;;;;;;;;;;;;;;;;;;4980348;28;19925;-86
2023/04/21 11:06:05;;;;;;;;;;;;;;;;;;4996452;28;19925;-86
2023/04/21 11:08:31;;;;;;;;;;;;;;;;;;4996533;28;19921;-86
2023/04/21 11:10:57;;;;;;;;;;;;;;;;;;4996623;28;20009;-86
2023/04/21 11:13:23;;;;;;;;;;;;;;;;;;4980471;28;19922;-86
2023/04/21 11:15:49;;;;;;;;;;;;;;;;;;4980233;28;19921;-88
2023/04/21 11:18:14;;;;;;;;;;;;;;;;;;4980600;28;19928;-89
2023/04/21 11:20:41;;;;;;;;;;;;;;;;;;4996515;28;19921;-88
2023/04/21 11:23:07;;;;;;;;;;;;;;;;;;5013906;28;20385;-89
2023/04/21 11:25:33;;;;;;;;;;;;;;;;;;4995954;28;19953;-90
2023/04/21 11:27:59;;;;;;;;;;;;;;;;;;4996289;28;19971;-89
2023/04/21 11:30:24;;;;;;;;;;;;;;;;;;4996085;28;20343;-91
2023/04/21 11:32:50;;;;;;;;;;;;;;;;;;4979778;28;19921;-91
2023/04/21 11:35:16;;;;;;;;;;;;;;;;;;4979861;28;19921;-90
2023/04/21 11:37:42;;;;;;;;;;;;;;;;;;4995857;28;19921;-89
2023/04/21 11:40:08;;;;;;;;;;;;;;;;;;4995824;28;19921;-89
2023/04/21 11:42:34;;;;;;;;;;;;;;;;;;4979103;28;19926;-88
2023/04/21 11:45:00;;;;;;;;;;;;;;;;;;4977644;28;20288;-90
2023/04/21 11:47:26;;;;;;;;;;;;;;;;;;4994557;28;20358;-89
2023/04/21 11:49:53;;;;;;;;;;;;;;;;;;4995550;28;19955;-89
2023/04/21 11:52:19;;;;;;;;;;;;;;;;;;4979838;28;19921;-88
2023/04/21 11:54:45;;;;;;;;;;;;;;;;;;4979546;28;20257;-88
2023/04/21 11:57:11;;;;;;;;;;;;;;;;;;4995642;28;19921;-90
2023/04/21 11:59:37;;;;;;;;;;;;;;;;;;4979457;28;19926;-91
2023/04/21 12:02:03;;;;;;;;;;;;;;;;;;4995557;28;19929;-92
2023/04/21 12:04:29;;;;;;;;;;;;;;;;;;4995355;28;19988;-92
2023/04/21 12:06:55;;;;;;;;;;;;;;;;;;4995421;28;19921;-91
2023/04/21 12:09:21;;;;;;;;;;;;;;;;;;4979390;28;19921;-90
2023/04/21 12:11:50;;;;;;;;;;;;;;;;;;5013258;28;19921;-89
2023/04/21 12:14:16;;;;;;;;;;;;;;;;;;4995220;28;19937;-90
2023/04/21 12:16:42;;;;;;;;;;;;;;;;;;4995567;28;20352;-90
2023/04/21 12:19:08;;;;;;;;;;;;;;;;;;4996010;28;20365;-90
2023/04/21 12:21:34;;;;;;;;;;;;;;;;;;4978976;28;20487;-91
2023/04/21 12:23:59;;;;;;;;;;;;;;;;;;4995816;28;20135;-90
2023/04/21 12:26:25;;;;;;;;;;;;;;;;;;4959162;28;20005;-91
2023/04/21 12:28:51;;;;;;;;;;;;;;;;;;4959795;28;19929;-90
2023/04/21 12:31:18;;;;;;;;;;;;;;;;;;4976074;28;19922;-90
2023/04/21 12:33:44;;;;;;;;;;;;;;;;;;4975953;28;19925;-93
2023/04/21 12:36:10;;;;;;;;;;;;;;;;;;4959774;28;19969;-93
2023/04/21 12:38:36;;;;;;;;;;;;;;;;;;4990733;28;20387;-90
2023/04/21 12:41:02;;;;;;;;;;;;;;;;;;4978953;28;19929;-90
2023/04/21 12:43:28;;;;;;;;;;;;;;;;;;4994939;28;20322;-92
2023/04/21 12:45:54;;;;;;;;;;;;;;;;;;4980928;28;19929;-90
2023/04/21 12:48:20;;;;;;;;;;;;;;;;;;4997475;28;19922;-88
2023/04/21 12:50:46;;;;;;;;;;;;;;;;;;4979883;28;19933;-90
2023/04/21 12:53:12;;;;;;;;;;;;;;;;;;4997669;28;19922;-94
2023/04/21 12:55:37;;;;;;;;;;;;;;;;;;4984162;28;19921;-93
2023/04/21 12:58:03;;;;;;;;;;;;;;;;;;4984539;28;19973;-92
2023/04/21 13:00:30;;;;;;;;;;;;;;;;;;5000176;28;19968;-94
2023/04/21 13:02:56;;;;;;;;;;;;;;;;;;4996630;28;19926;-92
2023/04/21 13:05:22;;;;;;;;;;;;;;;;;;4996690;28;19973;-93
2023/04/21 13:07:48;;;;;;;;;;;;;;;;;;4981083;28;19922;-94
2023/04/21 13:10:14;;;;;;;;;;;;;;;;;;4980733;28;20277;-91
2023/04/21 13:12:40;;;;;;;;;;;;;;;;;;4980255;28;20487;-94
2023/04/21 13:15:06;;;;;;;;;;;;;;;;;;4996114;28;19922;-93
2023/04/21 13:17:32;;;;;;;;;;;;;;;;;;4980143;28;19922;-94
2023/04/21 13:19:58;;;;;;;;;;;;;;;;;;4980375;28;19972;-94
2023/04/21 13:22:24;;;;;;;;;;;;;;;;;;4980600;28;19948;-95
2023/04/21 13:24:50;;;;;;;;;;;;;;;;;;4980356;28;20345;-95
2023/04/21 13:27:16;;;;;;;;;;;;;;;;;;4996373;28;19948;-93
2023/04/21 13:29:46;;;;;;;;;;;;;;;;;;4980658;28;19991;-92
2023/04/21 13:32:12;;;;;;;;;;;;;;;;;;4980883;28;19933;-93
2023/04/21 13:34:38;;;;;;;;;;;;;;;;;;4997429;28;19922;-92
2023/04/21 13:37:04;;;;;;;;;;;;;;;;;;4980157;28;19922;-95
2023/04/21 13:39:30;;;;;;;;;;;;;;;;;;4980455;28;20262;-94
2023/04/21 13:41:56;;;;;;;;;;;;;;;;;;4997765;28;19926;-94
2023/04/21 13:44:24;;;;;;;;;;;;;;;;;;4981220;28;19921;-93
2023/04/21 13:46:52;;;;;;;;;;;;;;;;;;4980242;28;20419;-92
2023/04/21 13:49:18;;;;;;;;;;;;;;;;;;4980122;28;19921;-94
2023/04/21 13:51:47;;;;;;;;;;;;;;;;;;4979692;28;20349;-96
2023/04/21 13:54:13;;;;;;;;;;;;;;;;;;4980044;28;19921;-95
2023/04/21 13:56:39;;;;;;;;;;;;;;;;;;4980103;28;19927;-96
2023/04/21 13:59:05;;;;;;;;;;;;;;;;;;4981183;28;20008;-95
2023/04/21 14:01:32;;;;;;;;;;;;;;;;;;4980490;28;20016;-93
2023/04/21 14:03:58;;;;;;;;;;;;;;;;;;4978918;28;19921;-91
2023/04/21 14:06:24;;;;;;;;;;;;;;;;;;4978023;28;19926;-88
2023/04/21 14:08:50;;;;;;;;;;;;;;;;;;4978944;28;19929;-93
2023/04/21 14:11:16;;;;;;;;;;;;;;;;;;4994781;28;19929;-91
2023/04/21 14:13:42;;;;;;;;;;;;;;;;;;4994497;28;19944;-90
2023/04/21 14:16:08;;;;;;;;;;;;;;;;;;4978343;28;20381;-92
2023/04/21 14:18:35;;;;;;;;;;;;;;;;;;4978264;28;19932;-90
2023/04/21 14:21:01;;;;;;;;;;;;;;;;;;4978275;28;20066;-88
2023/04/21 14:23:27;;;;;;;;;;;;;;;;;;4978032;28;19932;-87
2023/04/21 14:25:53;;;;;;;;;;;;;;;;;;4993957;28;20381;-87
2023/04/21 14:28:18;;;;;;;;;;;;;;;;;;5013126;28;20017;-87
2023/04/21 14:30:44;;;;;;;;;;;;;;;;;;4997876;28;20024;-88
2023/04/21 14:33:12;;;;;;;;;;;;;;;;;;4997074;28;20159;-88
2023/04/21 14:35:38;;;;;;;;;;;;;;;;;;4997336;28;20023;-87
2023/04/21 14:38:04;;;;;;;;;;;;;;;;;;4997629;28;20388;-88
2023/04/21 14:40:30;;;;;;;;;;;;;;;;;;4997323;28;19922;-89
2023/04/21 14:42:56;;;;;;;;;;;;;;;;;;5015033;28;19995;-88
2023/04/21 14:45:22;;;;;;;;;;;;;;;;;;5014757;28;19921;-87
2023/04/21 14:47:48;;;;;;;;;;;;;;;;;;5014885;28;20519;-88
2023/04/21 14:50:13;;;;;;;;;;;;;;;;;;4996966;28;19925;-89
2023/04/21 14:52:40;;;;;;;;;;;;;;;;;;4981071;28;19922;-88
2023/04/21 14:55:06;;;;;;;;;;;;;;;;;;4980999;28;20361;-90
2023/04/21 14:57:32;;;;;;;;;;;;;;;;;;4980516;28;19965;-89
2023/04/21 14:59:58;;;;;;;;;;;;;;;;;;4997398;28;19932;-90
2023/04/21 15:02:24;;;;;;;;;;;;;;;;;;4997888;28;19936;-90
2023/04/21 15:04:50;;;;;;;;;;;;;;;;;;4997091;28;20012;-92
2023/04/21 15:07:15;;;;;;;;;;;;;;;;;;4997518;28;19922;-90
2023/04/21 15:09:44;;;;;;;;;;;;;;;;;;4996879;28;20253;-87
2023/04/21 15:12:12;;;;;;;;;;;;;;;;;;4980527;28;20436;-91
2023/04/21 15:14:38;;;;;;;;;;;;;;;;;;4980749;28;19921;-88
2023/04/21 15:17:03;;;;;;;;;;;;;;;;;;4996926;28;20456;-91
2023/04/21 15:19:30;;;;;;;;;;;;;;;;;;4981513;28;19947;-91
2023/04/21 15:21:55;;;;;;;;;;;;;;;;;;4980541;28;19925;-92
2023/04/21 15:24:21;;;;;;;;;;;;;;;;;;4999977;28;20377;-90
2023/04/21 15:26:47;;;;;;;;;;;;;;;;;;4984191;28;20369;-90
2023/04/21 15:29:13;;;;;;;;;;;;;;;;;;4983784;28;19925;-90
2023/04/21 15:31:39;;;;;;;;;;;;;;;;;;4999612;28;19921;-89
2023/04/21 15:34:05;;;;;;;;;;;;;;;;;;4999682;28;20008;-90
2023/04/21 15:36:31;;;;;;;;;;;;;;;;;;4999467;28;19972;-90
2023/04/21 15:38:57;;;;;;;;;;;;;;;;;;4997789;28;19984;-91
2023/04/21 15:41:24;;;;;;;;;;;;;;;;;;5014953;28;20459;-92
2023/04/21 15:43:50;;;;;;;;;;;;;;;;;;4997374;28;20011;-90
2023/04/21 15:46:16;;;;;;;;;;;;;;;;;;4996455;28;19922;-91
2023/04/21 15:48:42;;;;;;;;;;;;;;;;;;4996206;28;19921;-87
2023/04/21 15:51:09;;;;;;;;;;;;;;;;;;4996297;28;19921;-91
2023/04/21 15:53:36;;;;;;;;;;;;;;;;;;4980812;28;20282;-93
2023/04/21 15:56:02;;;;;;;;;;;;;;;;;;4996938;28;19990;-91
2023/04/21 15:58:28;;;;;;;;;;;;;;;;;;4980086;28;19928;-89
2023/04/21 16:00:54;;;;;;;;;;;;;;;;;;4996368;28;19921;-90
2023/04/21 16:03:20;;;;;;;;;;;;;;;;;;4995998;28;19936;-92
2023/04/21 16:05:46;;;;;;;;;;;;;;;;;;4996116;28;19988;-92
2023/04/21 16:08:12;;;;;;;;;;;;;;;;;;4996077;28;19984;-90
2023/04/21 16:10:38;;;;;;;;;;;;;;;;;;4995964;28;20365;-92
2023/04/21 16:13:04;;;;;;;;;;;;;;;;;;4979754;28;19929;-89
2023/04/21 16:15:30;;;;;;;;;;;;;;;;;;4995457;28;19928;-88
2023/04/21 16:17:55;;;;;;;;;;;;;;;;;;4979851;28;19921;-88
2023/04/21 16:20:21;;;;;;;;;;;;;;;;;;4995499;28;20300;-89
2023/04/21 16:22:47;;;;;;;;;;;;;;;;;;4995405;28;19929;-89
2023/04/21 16:25:16;;;;;;;;;;;;;;;;;;4995396;28;19925;-90
2023/04/21 16:27:42;;;;;;;;;;;;;;;;;;4995699;28;19926;-94
2023/04/21 16:30:08;;;;;;;;;;;;;;;;;;4979104;28;19921;-90
2023/04/21 16:32:34;;;;;;;;;;;;;;;;;;4995560;28;19922;-90
2023/04/21 16:35:00;;;;;;;;;;;;;;;;;;4995641;28;20001;-89
2023/04/21 16:37:26;;;;;;;;;;;;;;;;;;4995240;28;19972;-89